This is the latest recevied weather packets stored in our database for station/object YN8O-13. If no packets are shown the sender has not sent any weather packets the latest 10 day(s).
| Time | Temp. | Humidity | Pressure | Rain* | Wind** | Luminosity | Snow |
|---|---|---|---|---|---|---|---|
| 1778224518 | 26.11° C | 57% | 1013 hPa | 0 mm | - | - | - |
| 1778223918 | 26.11° C | 57% | 1013 hPa | 0 mm | - | - | - |
| 1778223318 | 26.11° C | 57% | 1013 hPa | 0 mm | - | - | - |
| 1778222717 | 26.11° C | 57% | 1013 hPa | 0 mm | - | - | - |
| 1778222117 | 26.11° C | 57% | 1013 hPa | 0 mm | - | - | - |
| 1778221516 | 26.11° C | 57% | 1013 hPa | 0 mm | - | - | - |
| 1778220916 | 26.11° C | 57% | 1013 hPa | 0 mm | - | - | - |
| 1778220315 | 26.11° C | 57% | 1013 hPa | 0 mm | - | - | - |
| 1778219715 | 26.11° C | 57% | 1013 hPa | 0 mm | - | - | - |
| 1778219115 | 26.11° C | 57% | 1013 hPa | 0 mm | - | - | - |
| 1778218515 | 26.11° C | 57% | 1013 hPa | 0 mm | - | - | - |
| 1778190898 | 33.89° C | 23% | 1007 hPa | 0 mm | - | - | - |
| 1778182493 | 33.89° C | 24% | 1009 hPa | 0 mm | - | - | - |
| 1778181892 | 32.78° C | 28% | 1010 hPa | 0 mm | - | - | - |
| 1778181292 | 32.78° C | 28% | 1010 hPa | 0 mm | - | - | - |
| 1778180692 | 32.78° C | 28% | 1010 hPa | 0 mm | - | - | - |
| 1778180091 | 32.78° C | 25% | 1010 hPa | 0 mm | - | - | - |
| 1778178890 | 32.78° C | 26% | 1011 hPa | 0 mm | - | - | - |
| 1778178290 | 31.11° C | 30% | 1012 hPa | 0 mm | - | - | - |
| 1778177689 | 31.11° C | 30% | 1012 hPa | 0 mm | - | - | - |
| 1778176489 | 31.67° C | 29% | 1012 hPa | 0 mm | - | - | - |
| 1778175288 | 31.11° C | 32% | 1012 hPa | 0 mm | - | - | - |
| 1778174688 | 30° C | 37% | 1013 hPa | 0 mm | - | - | - |
| 1778174087 | 30° C | 37% | 1013 hPa | 0 mm | - | - | - |
| 1778173487 | 30° C | 37% | 1013 hPa | 0 mm | - | - | - |
* Rain latest hour (hover to see other rain measurements)
** Current wind speed in m/s (hover to see current wind gust speed)